Time;durP1;ratioP1;P1;durP2;ratioP2;P2;SDS_P1;SDS_P2;PMS_P1;PMS_P2;Temp;Humidity;BMP_temperature;BMP_pressure;BME280_temperature;BME280_humidity;BME280_pressure;Samples;Min_cycle;Max_cycle;Signal;HPM_P1;HPM_P2
2022/09/12 00:00:39;;;;;;;3.70;2.63;;;22.90;65.50;;;;;;6124362;28;80709;-66
2022/09/12 00:03:39;;;;;;;4.03;2.70;;;22.90;65.50;;;;;;6130772;28;81200;-67
2022/09/12 00:06:40;;;;;;;3.83;2.72;;;22.80;65.30;;;;;;6125116;28;80219;-66
2022/09/12 00:09:40;;;;;;;3.72;2.80;;;22.80;65.20;;;;;;6126561;28;80655;-66
2022/09/12 00:12:41;;;;;;;3.30;2.70;;;22.80;65.20;;;;;;6123174;28;81139;-67
2022/09/12 00:15:41;;;;;;;5.47;3.40;;;22.80;65.10;;;;;;6130398;28;80486;-65
2022/09/12 00:18:43;;;;;;;3.05;2.58;;;22.80;65.10;;;;;;6122902;28;80293;-65
2022/09/12 00:21:44;;;;;;;3.67;2.42;;;22.80;65.10;;;;;;6127787;28;80331;-71
2022/09/12 00:24:44;;;;;;;5.57;2.92;;;22.80;65.00;;;;;;6129311;28;81330;-71
2022/09/12 00:27:44;;;;;;;3.25;2.70;;;22.80;65.00;;;;;;6126717;28;80371;-71
2022/09/12 00:30:45;;;;;;;3.50;2.55;;;22.80;65.00;;;;;;6110277;28;81068;-67
2022/09/12 00:33:45;;;;;;;4.25;2.67;;;22.80;64.90;;;;;;6129863;28;80348;-70
2022/09/12 00:36:46;;;;;;;4.20;2.60;;;22.80;64.80;;;;;;6119798;28;80578;-68
2022/09/12 00:39:46;;;;;;;3.70;2.80;;;22.80;64.80;;;;;;6133238;28;80389;-62
2022/09/12 00:42:47;;;;;;;4.05;2.70;;;22.80;64.80;;;;;;6106053;28;84130;-60
2022/09/12 00:45:47;;;;;;;5.00;2.75;;;22.80;64.80;;;;;;6116627;28;80039;-60
2022/09/12 00:48:48;;;;;;;3.45;2.83;;;22.80;64.70;;;;;;6115114;28;81205;-59
2022/09/12 00:51:48;;;;;;;4.38;3.00;;;22.80;64.70;;;;;;6110863;28;80615;-59
2022/09/12 00:54:49;;;;;;;3.58;2.50;;;22.80;64.70;;;;;;6125971;28;82287;-60
2022/09/12 00:57:49;;;;;;;4.43;2.75;;;22.80;64.60;;;;;;6126297;28;80831;-66
2022/09/12 01:00:50;;;;;;;4.07;2.70;;;22.80;64.60;;;;;;6115270;28;80200;-66
2022/09/12 01:03:50;;;;;;;3.75;2.78;;;22.80;64.70;;;;;;6127206;28;80508;-67
2022/09/12 01:06:51;;;;;;;4.32;2.90;;;22.70;64.70;;;;;;6114263;28;80479;-66
2022/09/12 01:09:51;;;;;;;3.95;2.58;;;22.80;64.70;;;;;;6118528;28;80588;-69
2022/09/12 01:12:52;;;;;;;5.88;2.97;;;22.80;64.70;;;;;;6118955;28;81284;-67
2022/09/12 01:15:53;;;;;;;3.70;2.75;;;22.80;64.60;;;;;;6118858;28;80370;-64
2022/09/12 01:18:53;;;;;;;4.47;2.90;;;22.80;64.70;;;;;;6124392;28;80446;-63
2022/09/12 01:21:54;;;;;;;5.30;2.70;;;22.80;64.70;;;;;;6124433;28;83024;-63
2022/09/12 01:24:54;;;;;;;4.40;3.08;;;22.80;64.70;;;;;;6125821;28;80391;-63
2022/09/12 01:27:55;;;;;;;4.35;2.70;;;22.80;64.70;;;;;;6127112;28;81102;-64
2022/09/12 01:30:55;;;;;;;3.42;2.70;;;22.80;64.60;;;;;;6125780;28;81145;-63
2022/09/12 01:33:56;;;;;;;4.07;2.90;;;22.70;64.50;;;;;;6124427;28;82537;-63
2022/09/12 01:36:56;;;;;;;5.50;2.67;;;22.70;64.50;;;;;;6124952;28;80243;-63
2022/09/12 01:39:57;;;;;;;7.70;3.75;;;22.70;64.50;;;;;;6122457;28;84640;-63
2022/09/12 01:42:58;;;;;;;5.10;3.60;;;22.70;64.50;;;;;;6129986;28;80959;-63
2022/09/12 01:46:00;;;;;;;6.30;3.63;;;22.70;64.40;;;;;;6129201;28;80859;-63
2022/09/12 01:49:01;;;;;;;4.15;3.08;;;22.70;64.40;;;;;;6126817;28;79999;-64
2022/09/12 01:52:01;;;;;;;5.43;2.97;;;22.70;64.30;;;;;;6127452;28;80741;-63
2022/09/12 01:55:01;;;;;;;4.97;3.13;;;22.70;64.30;;;;;;6116413;28;80293;-63
2022/09/12 01:58:02;;;;;;;4.63;3.38;;;22.70;64.30;;;;;;6104627;28;84904;-62
2022/09/12 02:01:03;;;;;;;3.90;3.00;;;22.70;64.20;;;;;;6126800;28;80264;-62
2022/09/12 02:04:03;;;;;;;5.07;3.28;;;22.70;64.20;;;;;;6128300;28;80811;-62
2022/09/12 02:07:04;;;;;;;4.88;3.33;;;22.70;64.20;;;;;;6126926;28;82859;-62
2022/09/12 02:10:04;;;;;;;6.50;3.15;;;22.70;64.20;;;;;;6128672;28;80926;-64
2022/09/12 02:13:04;;;;;;;6.25;3.50;;;22.70;64.00;;;;;;6128648;28;80222;-64
2022/09/12 02:16:05;;;;;;;4.50;3.35;;;22.70;64.00;;;;;;6129350;28;81043;-63
2022/09/12 02:19:05;;;;;;;6.55;4.20;;;22.70;64.00;;;;;;6131184;28;81903;-64
2022/09/12 02:22:06;;;;;;;4.43;3.13;;;22.70;64.00;;;;;;6125588;28;81035;-63
2022/09/12 02:25:07;;;;;;;6.22;3.70;;;22.70;63.90;;;;;;6131648;28;81014;-64
2022/09/12 02:28:07;;;;;;;4.63;3.40;;;22.70;63.90;;;;;;6124575;28;81538;-63
2022/09/12 02:31:08;;;;;;;5.05;3.22;;;22.70;63.80;;;;;;6131300;28;81444;-70
2022/09/12 02:34:08;;;;;;;4.47;3.45;;;22.70;63.90;;;;;;6129031;28;86747;-72
2022/09/12 02:37:09;;;;;;;4.28;3.20;;;22.70;63.80;;;;;;6129813;28;80245;-69
2022/09/12 02:40:09;;;;;;;7.07;3.42;;;22.70;63.80;;;;;;6120253;28;85415;-67
2022/09/12 02:43:10;;;;;;;5.55;3.50;;;22.70;63.80;;;;;;6127953;28;80357;-69
2022/09/12 02:46:11;;;;;;;3.78;3.20;;;22.70;63.60;;;;;;6126844;28;84416;-71
2022/09/12 02:49:11;;;;;;;4.22;3.45;;;22.70;63.70;;;;;;6124146;28;87114;-60
2022/09/12 02:52:12;;;;;;;5.53;3.17;;;22.60;63.60;;;;;;6119571;28;80810;-59
2022/09/12 02:55:12;;;;;;;5.95;3.80;;;22.70;63.60;;;;;;6125521;28;80262;-60
2022/09/12 02:58:13;;;;;;;5.32;3.67;;;22.70;63.60;;;;;;6127591;28;80970;-59
2022/09/12 03:01:13;;;;;;;5.05;3.53;;;22.70;63.60;;;;;;6127573;28;80855;-59
2022/09/12 03:04:14;;;;;;;3.53;2.97;;;22.60;63.50;;;;;;6131471;28;80119;-59
2022/09/12 03:07:14;;;;;;;8.10;4.13;;;22.70;63.60;;;;;;6126216;28;80583;-63
2022/09/12 03:10:15;;;;;;;6.57;3.92;;;22.70;63.50;;;;;;6131370;28;80329;-63
2022/09/12 03:13:15;;;;;;;6.07;3.60;;;22.60;63.40;;;;;;6126044;28;80952;-64
2022/09/12 03:16:16;;;;;;;9.50;3.53;;;22.60;63.40;;;;;;6127727;28;80304;-64
2022/09/12 03:19:18;;;;;;;4.53;3.42;;;22.70;63.40;;;;;;6126396;28;81519;-63
2022/09/12 03:22:18;;;;;;;5.00;3.72;;;22.60;63.30;;;;;;6125713;28;80501;-63
2022/09/12 03:25:19;;;;;;;4.68;3.45;;;22.60;63.20;;;;;;6127078;28;80097;-63
2022/09/12 03:28:22;;;;;;;5.40;3.75;;;22.70;63.40;;;;;;6130577;28;81350;-63
2022/09/12 03:31:22;;;;;;;9.55;3.63;;;22.60;63.20;;;;;;6124146;28;84098;-64
2022/09/12 03:34:23;;;;;;;6.55;3.45;;;22.60;63.20;;;;;;6127224;28;80401;-63
2022/09/12 03:37:23;;;;;;;5.57;4.15;;;22.60;63.20;;;;;;6126775;28;80633;-64
2022/09/12 03:40:24;;;;;;;4.03;3.33;;;22.60;63.10;;;;;;6135162;28;82471;-64
2022/09/12 03:43:24;;;;;;;5.78;3.97;;;22.60;63.00;;;;;;6117029;28;80856;-73
2022/09/12 03:46:25;;;;;;;8.48;4.43;;;22.60;63.00;;;;;;6121087;28;80346;-73
2022/09/12 03:49:25;;;;;;;4.72;3.40;;;22.60;63.00;;;;;;6122322;28;83871;-73
2022/09/12 03:52:26;;;;;;;5.15;4.13;;;22.60;62.90;;;;;;6120917;28;82013;-73
2022/09/12 03:55:26;;;;;;;5.55;3.75;;;22.60;62.80;;;;;;6114980;28;80554;-72
2022/09/12 03:58:27;;;;;;;9.20;3.70;;;22.60;62.80;;;;;;6128742;28;83876;-71
2022/09/12 04:01:27;;;;;;;5.32;3.85;;;22.60;62.80;;;;;;6126022;28;81269;-72
2022/09/12 04:04:28;;;;;;;6.10;4.20;;;22.60;62.80;;;;;;6128658;28;83573;-71
2022/09/12 04:07:28;;;;;;;5.05;3.72;;;22.60;62.80;;;;;;6139974;28;83587;-69
2022/09/12 04:10:29;;;;;;;4.45;3.50;;;22.60;62.80;;;;;;6149628;28;83386;-70
2022/09/12 04:13:29;;;;;;;5.47;3.80;;;22.60;62.70;;;;;;6141710;28;80870;-71
2022/09/12 04:16:31;;;;;;;4.38;3.70;;;22.60;62.60;;;;;;6139283;28;81318;-70
2022/09/12 04:19:31;;;;;;;6.47;3.90;;;22.60;62.60;;;;;;6127483;28;80685;-71
2022/09/12 04:22:32;;;;;;;10.27;4.13;;;22.60;62.60;;;;;;6141573;28;86155;-69
2022/09/12 04:25:33;;;;;;;5.13;4.00;;;22.60;62.50;;;;;;6132371;28;87908;-69
2022/09/12 04:28:33;;;;;;;5.50;3.20;;;22.60;62.50;;;;;;6125037;28;80790;-70
2022/09/12 04:31:34;;;;;;;4.40;3.38;;;22.60;62.40;;;;;;6120895;28;82221;-68
2022/09/12 04:34:34;;;;;;;4.95;3.97;;;22.60;62.40;;;;;;6122045;28;80137;-67
2022/09/12 04:37:35;;;;;;;5.07;3.75;;;22.60;62.50;;;;;;6124024;28;83030;-64
2022/09/12 04:40:35;;;;;;;4.35;3.55;;;22.60;62.70;;;;;;6134765;28;83514;-64
2022/09/12 04:43:36;;;;;;;5.95;4.15;;;22.60;62.80;;;;;;6126491;28;80858;-68
2022/09/12 04:46:37;;;;;;;7.03;4.03;;;22.70;63.50;;;;;;6092816;28;81166;-64
2022/09/12 04:49:37;;;;;;;14.45;4.45;;;22.70;63.60;;;;;;6094959;28;80565;-69
2022/09/12 04:52:38;;;;;;;8.95;3.35;;;22.70;63.90;;;;;;6104229;28;81086;-62
2022/09/12 04:55:38;;;;;;;6.07;4.07;;;22.80;64.30;;;;;;6122067;28;83587;-60
2022/09/12 04:58:39;;;;;;;4.20;3.38;;;22.80;64.00;;;;;;6106420;28;80815;-60
2022/09/12 05:01:40;;;;;;;4.72;3.88;;;22.80;64.20;;;;;;6125274;28;80993;-61
2022/09/12 05:04:40;;;;;;;6.63;3.42;;;22.80;64.50;;;;;;6129873;28;80884;-64
2022/09/12 05:07:41;;;;;;;7.05;4.15;;;22.90;64.10;;;;;;6124464;28;80496;-60
2022/09/12 05:10:41;;;;;;;6.88;3.83;;;22.80;64.50;;;;;;6126978;28;80455;-62
2022/09/12 05:13:42;;;;;;;8.68;4.10;;;22.90;64.50;;;;;;6094456;28;81672;-73
2022/09/12 05:16:42;;;;;;;4.65;3.90;;;22.90;64.40;;;;;;6143116;28;80624;-73
2022/09/12 05:19:43;;;;;;;6.50;3.95;;;23.00;64.70;;;;;;6148709;28;80786;-65
2022/09/12 05:22:43;;;;;;;14.48;3.65;;;23.00;64.80;;;;;;6133719;28;80907;-69
2022/09/12 05:25:44;;;;;;;16.27;3.75;;;23.00;65.70;;;;;;6137101;28;80628;-78
2022/09/12 05:28:44;;;;;;;8.32;3.75;;;23.00;65.90;;;;;;6106883;28;81046;-79
2022/09/12 05:31:50;;;;;;;19.23;4.10;;;23.00;66.70;;;;;;6118763;28;80736;-72
2022/09/12 05:34:51;;;;;;;7.18;4.18;;;23.00;66.10;;;;;;6116262;28;82506;-77
2022/09/12 05:37:51;;;;;;;10.07;4.07;;;23.00;65.60;;;;;;6135902;28;80520;-76
2022/09/12 05:40:52;;;;;;;8.45;4.35;;;23.00;65.70;;;;;;6131311;28;80737;-71
2022/09/12 05:43:52;;;;;;;5.40;4.25;;;23.00;66.00;;;;;;6121553;28;80549;-74
2022/09/12 05:46:53;;;;;;;5.15;3.70;;;23.00;65.30;;;;;;6125457;28;82561;-74
2022/09/12 05:49:53;;;;;;;6.18;3.90;;;23.00;65.30;;;;;;6113109;28;80985;-68
2022/09/12 05:52:54;;;;;;;5.68;4.13;;;23.00;65.30;;;;;;6110209;28;83128;-69
2022/09/12 05:55:54;;;;;;;7.18;4.57;;;23.00;65.30;;;;;;6094297;28;82774;-69
2022/09/12 05:58:55;;;;;;;7.18;4.50;;;23.00;65.20;;;;;;6115986;28;82423;-68
2022/09/12 06:01:55;;;;;;;6.47;4.68;;;23.00;63.50;;;;;;6116227;28;83105;-69
2022/09/12 06:04:56;;;;;;;7.60;4.30;;;23.00;63.90;;;;;;6136270;28;82826;-66
2022/09/12 06:07:57;;;;;;;7.05;4.55;;;23.00;62.20;;;;;;6103227;28;80568;-65
2022/09/12 06:10:58;;;;;;;5.93;4.07;;;23.00;61.90;;;;;;6105164;28;82105;-65
2022/09/12 06:13:58;;;;;;;6.57;4.35;;;23.00;62.20;;;;;;6149035;28;83949;-64
2022/09/12 06:16:59;;;;;;;9.23;3.92;;;23.00;62.20;;;;;;6119402;28;82368;-64
2022/09/12 06:20:00;;;;;;;10.52;4.85;;;23.00;62.40;;;;;;6132637;28;80596;-64
2022/09/12 06:23:01;;;;;;;7.38;4.00;;;23.00;61.60;;;;;;6124899;28;81233;-63
2022/09/12 06:26:01;;;;;;;4.95;3.70;;;23.00;61.60;;;;;;6111138;28;81476;-63
2022/09/12 06:29:02;;;;;;;6.35;4.00;;;22.90;61.40;;;;;;6119003;28;81547;-62
2022/09/12 06:32:02;;;;;;;8.77;3.47;;;22.90;61.40;;;;;;6123977;28;80767;-62
2022/09/12 06:35:04;;;;;;;13.48;4.45;;;22.90;61.30;;;;;;6141033;28;80434;-61
2022/09/12 06:38:04;;;;;;;5.28;3.55;;;23.00;61.30;;;;;;6128625;28;80837;-60
2022/09/12 06:41:06;;;;;;;5.22;3.83;;;23.00;60.80;;;;;;6121587;28;80755;-61
2022/09/12 06:44:06;;;;;;;6.18;3.70;;;23.00;61.10;;;;;;6107064;28;82260;-60
2022/09/12 06:47:06;;;;;;;6.18;3.15;;;23.00;60.60;;;;;;6112983;28;83470;-62
2022/09/12 06:50:07;;;;;;;5.00;3.50;;;22.90;59.80;;;;;;6139030;28;81389;-62
2022/09/12 06:53:08;;;;;;;6.05;3.63;;;22.90;59.90;;;;;;6135089;28;81082;-67
2022/09/12 06:56:09;;;;;;;6.85;4.60;;;23.00;59.90;;;;;;6149766;28;81453;-68
2022/09/12 06:59:09;;;;;;;6.55;3.10;;;23.00;60.60;;;;;;6140518;28;80958;-66
2022/09/12 07:02:10;;;;;;;5.50;3.80;;;23.00;60.30;;;;;;6131787;28;80859;-68
2022/09/12 07:05:10;;;;;;;6.95;4.05;;;23.00;60.50;;;;;;6128818;28;81464;-67
2022/09/12 07:08:11;;;;;;;9.82;3.67;;;23.10;60.60;;;;;;6129706;28;80522;-65
2022/09/12 07:11:11;;;;;;;6.57;3.40;;;23.00;59.10;;;;;;6115398;28;81131;-68
2022/09/12 07:14:12;;;;;;;5.38;3.28;;;23.10;59.60;;;;;;6119721;28;80448;-63
2022/09/12 07:17:13;;;;;;;8.38;4.07;;;23.10;59.60;;;;;;6110746;28;81462;-62
2022/09/12 07:20:13;;;;;;;4.70;3.30;;;23.10;59.70;;;;;;6105537;28;81018;-64
2022/09/12 07:23:14;;;;;;;10.23;3.80;;;23.10;59.50;;;;;;6107048;28;80744;-65
2022/09/12 07:26:14;;;;;;;9.95;5.47;;;23.10;59.60;;;;;;6111257;28;80427;-63
2022/09/12 07:29:15;;;;;;;79.95;35.33;;;23.10;59.70;;;;;;6112791;28;80036;-65
2022/09/12 07:32:15;;;;;;;149.65;63.17;;;23.10;59.20;;;;;;6108895;28;82794;-61
2022/09/12 07:35:16;;;;;;;211.40;92.47;;;23.20;58.70;;;;;;6104215;28;82834;-64
2022/09/12 07:38:17;;;;;;;253.13;101.28;;;23.20;58.60;;;;;;6110672;28;83442;-61
2022/09/12 07:41:17;;;;;;;222.52;86.78;;;23.20;57.90;;;;;;6117166;28;85236;-62
2022/09/12 07:44:18;;;;;;;188.27;75.82;;;23.20;58.10;;;;;;6109695;28;85329;-63
2022/09/12 07:47:19;;;;;;;156.07;67.75;;;23.20;58.30;;;;;;6098266;28;83458;-62
2022/09/12 07:50:19;;;;;;;222.07;89.97;;;23.20;57.80;;;;;;6103368;28;83798;-61
2022/09/12 07:53:19;;;;;;;298.95;125.43;;;23.20;57.50;;;;;;6103965;28;83038;-62
2022/09/12 07:56:20;;;;;;;332.10;138.23;;;23.20;57.60;;;;;;6109090;28;88803;-62
2022/09/12 07:59:21;;;;;;;298.40;124.97;;;23.30;57.30;;;;;;6114521;28;86346;-73
2022/09/12 08:02:21;;;;;;;195.90;79.25;;;23.30;57.10;;;;;;6105837;28;88353;-73
2022/09/12 08:05:22;;;;;;;158.65;62.70;;;23.40;55.80;;;;;;6116995;28;84214;-67
2022/09/12 08:08:22;;;;;;;122.47;46.92;;;23.30;55.30;;;;;;6099789;28;84278;-69
2022/09/12 08:11:23;;;;;;;117.40;46.10;;;23.30;55.60;;;;;;6114747;28;85619;-68
2022/09/12 08:14:23;;;;;;;71.10;30.98;;;23.30;55.80;;;;;;6142018;28;83611;-68
2022/09/12 08:17:24;;;;;;;70.30;30.48;;;23.30;55.50;;;;;;6112260;28;89301;-62
2022/09/12 08:20:24;;;;;;;74.68;29.05;;;23.30;54.50;;;;;;6087599;28;83573;-62
2022/09/12 08:23:26;;;;;;;62.28;25.35;;;23.30;54.00;;;;;;6098750;28;86295;-62
2022/09/12 08:26:27;;;;;;;58.63;24.20;;;23.40;53.90;;;;;;6096229;28;83780;-60
2022/09/12 08:29:27;;;;;;;56.20;22.88;;;23.40;53.90;;;;;;6091157;28;83301;-61
2022/09/12 08:32:28;;;;;;;56.25;21.25;;;23.40;54.30;;;;;;6115459;28;83409;-60
2022/09/12 08:35:28;;;;;;;54.10;21.90;;;23.40;54.40;;;;;;6115682;28;88700;-60
2022/09/12 08:38:29;;;;;;;58.17;21.15;;;23.40;54.70;;;;;;6128683;28;83855;-60
2022/09/12 08:41:29;;;;;;;39.30;18.70;;;23.50;54.80;;;;;;6128134;28;86403;-60
2022/09/12 08:44:30;;;;;;;50.95;19.73;;;23.50;54.80;;;;;;6121901;28;83873;-64
2022/09/12 08:47:30;;;;;;;53.03;16.65;;;23.50;54.70;;;;;;6147386;28;85628;-63
2022/09/12 08:50:31;;;;;;;41.95;16.38;;;23.50;54.80;;;;;;6122622;28;83513;-59
2022/09/12 08:53:33;;;;;;;29.85;12.68;;;23.50;55.00;;;;;;6130282;28;83224;-60
2022/09/12 08:56:34;;;;;;;22.08;9.98;;;23.50;53.70;;;;;;6122305;28;83407;-60
2022/09/12 08:59:34;;;;;;;24.08;9.18;;;23.30;53.00;;;;;;6125251;28;84986;-60
2022/09/12 09:02:35;;;;;;;20.08;8.23;;;23.20;52.80;;;;;;6132977;28;83569;-61
2022/09/12 09:05:36;;;;;;;20.60;7.07;;;23.30;52.70;;;;;;6143952;28;82372;-62
2022/09/12 09:08:36;;;;;;;23.38;7.13;;;23.40;53.20;;;;;;6125149;28;81414;-61
2022/09/12 09:11:37;;;;;;;15.13;6.70;;;23.40;53.20;;;;;;6117271;28;80728;-61
2022/09/12 09:14:49;;;;;;;18.38;6.75;;;23.40;52.80;;;;;;6122028;28;84589;-64
2022/09/12 09:17:50;;;;;;;11.32;4.80;;;23.40;53.20;;;;;;6126471;28;83823;-61
2022/09/12 09:20:50;;;;;;;17.02;5.63;;;23.50;53.30;;;;;;6132439;28;86522;-61
2022/09/12 09:23:51;;;;;;;10.60;4.93;;;23.50;53.30;;;;;;6137970;28;81039;-61
2022/09/12 09:26:51;;;;;;;11.93;4.55;;;23.50;53.00;;;;;;6134318;28;80981;-63
2022/09/12 09:29:52;;;;;;;8.30;4.32;;;23.50;52.80;;;;;;6123343;28;80523;-61
2022/09/12 09:32:52;;;;;;;15.18;4.60;;;23.50;52.70;;;;;;6116048;28;80403;-62
2022/09/12 09:35:53;;;;;;;6.70;3.42;;;23.50;51.90;;;;;;6116864;28;80707;-63
2022/09/12 09:38:53;;;;;;;6.75;3.50;;;23.50;51.80;;;;;;6119171;28;80727;-63
2022/09/12 09:41:54;;;;;;;5.10;3.00;;;23.50;51.60;;;;;;6127223;28;80951;-62
2022/09/12 09:44:54;;;;;;;8.88;3.50;;;23.50;51.60;;;;;;6124072;28;80452;-64
2022/09/12 09:47:55;;;;;;;7.60;2.80;;;23.50;51.80;;;;;;6119496;28;80647;-63
2022/09/12 09:50:55;;;;;;;13.43;3.15;;;23.50;51.70;;;;;;6107590;28;80822;-63
2022/09/12 09:53:56;;;;;;;7.40;3.42;;;23.50;52.10;;;;;;6124592;28;80556;-65
2022/09/12 09:56:56;;;;;;;7.72;3.08;;;23.60;52.40;;;;;;6124203;28;80403;-63
2022/09/12 09:59:57;;;;;;;5.32;2.67;;;23.60;52.60;;;;;;6121049;28;80120;-66
2022/09/12 10:02:58;;;;;;;10.68;3.88;;;23.60;52.40;;;;;;6111655;28;80234;-64
2022/09/12 10:05:58;;;;;;;14.45;3.20;;;23.60;52.40;;;;;;6111540;28;80368;-62
2022/09/12 10:08:59;;;;;;;18.17;4.10;;;23.60;50.90;;;;;;6113160;28;82412;-60
2022/09/12 10:12:00;;;;;;;21.95;5.95;;;23.70;51.90;;;;;;6126009;28;80505;-60
2022/09/12 10:15:01;;;;;;;20.83;5.68;;;23.70;52.60;;;;;;6122661;28;80707;-59
2022/09/12 10:18:01;;;;;;;13.00;2.97;;;23.70;52.30;;;;;;6125638;28;80211;-59
2022/09/12 10:21:02;;;;;;;6.28;2.00;;;23.60;46.80;;;;;;6122490;28;81621;-60
2022/09/12 10:24:03;;;;;;;7.13;2.10;;;23.50;46.10;;;;;;6121029;28;81640;-60
2022/09/12 10:27:03;;;;;;;2.53;1.42;;;23.40;46.60;;;;;;6125152;28;81903;-66
2022/09/12 10:30:04;;;;;;;2.70;1.70;;;23.40;47.60;;;;;;6122298;28;80666;-67
2022/09/12 10:33:05;;;;;;;2.50;1.40;;;23.40;47.60;;;;;;6126502;28;80836;-62
2022/09/12 10:36:05;;;;;;;3.72;1.50;;;23.40;47.20;;;;;;6129880;28;81889;-65
2022/09/12 10:39:06;;;;;;;3.55;1.50;;;23.50;47.20;;;;;;6115068;28;80894;-66
2022/09/12 10:42:06;;;;;;;2.85;1.80;;;23.50;46.30;;;;;;6118397;28;80322;-65
2022/09/12 10:45:07;;;;;;;3.40;1.65;;;23.40;45.60;;;;;;6120944;28;80481;-64
2022/09/12 10:48:07;;;;;;;10.80;1.70;;;23.40;45.90;;;;;;6123149;28;80796;-66
2022/09/12 10:51:08;;;;;;;1.33;1.08;;;23.40;46.60;;;;;;6126512;28;80578;-68
2022/09/12 10:54:08;;;;;;;2.88;1.65;;;23.40;46.90;;;;;;6115990;28;85133;-64
2022/09/12 10:57:08;;;;;;;3.20;1.80;;;23.50;47.50;;;;;;6117692;28;81009;-66
2022/09/12 11:00:26;;;;;;;4.07;2.13;;;23.60;47.90;;;;;;6114274;28;80712;-68
2022/09/12 11:03:26;;;;;;;3.20;2.00;;;23.60;48.00;;;;;;6112888;28;81821;-57
2022/09/12 11:06:27;;;;;;;6.60;1.75;;;23.70;48.30;;;;;;6116624;28;80753;-63
2022/09/12 11:09:27;;;;;;;4.57;2.20;;;23.70;48.40;;;;;;6122523;28;82644;-61
2022/09/12 11:12:28;;;;;;;4.40;1.58;;;23.80;48.60;;;;;;6122162;28;80781;-63
2022/09/12 11:15:28;;;;;;;5.30;1.70;;;23.80;48.40;;;;;;6128252;28;84816;-63
2022/09/12 11:18:29;;;;;;;1.58;1.40;;;23.90;48.80;;;;;;6099373;28;82637;-62
2022/09/12 11:21:29;;;;;;;2.15;1.40;;;23.80;47.30;;;;;;6114218;28;81473;-61
2022/09/12 11:24:30;;;;;;;8.05;1.75;;;23.80;46.60;;;;;;6125492;28;81412;-61
2022/09/12 11:27:31;;;;;;;3.67;1.55;;;23.80;46.60;;;;;;6096813;28;80455;-61
2022/09/12 11:30:31;;;;;;;3.22;1.83;;;23.80;46.80;;;;;;6095830;28;80834;-61
2022/09/12 11:33:32;;;;;;;1.55;1.38;;;23.80;46.30;;;;;;6100494;28;80924;-62
2022/09/12 11:36:32;;;;;;;1.95;1.73;;;23.90;46.50;;;;;;6093521;28;83773;-59
2022/09/12 11:39:33;;;;;;;3.85;1.70;;;23.90;47.40;;;;;;6100322;28;83437;-61
2022/09/12 11:42:34;;;;;;;2.50;1.60;;;24.00;47.20;;;;;;6098528;28;86817;-61
2022/09/12 11:45:34;;;;;;;3.53;1.65;;;24.00;47.20;;;;;;6111537;28;81057;-61
2022/09/12 11:48:35;;;;;;;3.20;1.85;;;24.00;47.30;;;;;;6118429;28;81263;-63
2022/09/12 11:51:35;;;;;;;2.90;1.60;;;24.00;45.90;;;;;;6124037;28;80342;-61
2022/09/12 11:54:36;;;;;;;2.55;1.60;;;23.90;46.80;;;;;;6119851;28;80478;-61
2022/09/12 11:57:36;;;;;;;5.88;1.88;;;24.00;46.90;;;;;;6119450;28;80490;-61
2022/09/12 12:00:37;;;;;;;2.35;1.63;;;24.00;46.50;;;;;;6121324;28;85708;-61
2022/09/12 12:03:37;;;;;;;1.83;1.65;;;24.00;45.60;;;;;;6114761;28;82105;-61
2022/09/12 12:06:38;;;;;;;1.67;1.58;;;24.00;46.00;;;;;;6136320;28;80833;-61
2022/09/12 12:09:38;;;;;;;2.42;1.75;;;24.00;45.20;;;;;;6105771;28;82459;-61
2022/09/12 12:12:39;;;;;;;2.17;1.52;;;24.00;44.50;;;;;;6108972;28;80808;-62
2022/09/12 12:15:39;;;;;;;2.65;1.63;;;23.90;44.00;;;;;;6103635;28;80444;-61
2022/09/12 12:18:40;;;;;;;3.85;1.67;;;23.90;44.20;;;;;;6093925;28;84944;-67
2022/09/12 12:21:41;;;;;;;5.03;1.70;;;23.90;44.20;;;;;;6105795;28;81007;-67
2022/09/12 12:24:41;;;;;;;3.10;1.85;;;23.90;44.70;;;;;;6110516;28;80428;-66
2022/09/12 12:27:42;;;;;;;3.53;2.35;;;23.90;44.70;;;;;;6121099;28;80841;-67
2022/09/12 12:30:42;;;;;;;3.78;2.13;;;23.80;44.40;;;;;;6115795;28;81947;-68
2022/09/12 12:33:43;;;;;;;12.57;2.70;;;23.80;44.40;;;;;;6109787;28;80420;-66
2022/09/12 12:36:43;;;;;;;8.90;2.33;;;23.80;44.00;;;;;;6107259;28;80491;-68
2022/09/12 12:39:47;;;;;;;4.30;2.70;;;23.70;43.80;;;;;;6125188;28;80592;-68
2022/09/12 12:42:49;;;;;;;4.45;2.33;;;23.70;43.20;;;;;;6112756;28;80149;-69
2022/09/12 12:45:49;;;;;;;16.38;3.58;;;23.70;43.70;;;;;;6120689;28;80052;-68
2022/09/12 12:48:50;;;;;;;58.13;10.13;;;23.70;44.30;;;;;;6102216;28;82612;-68
2022/09/12 12:51:50;;;;;;;38.17;7.70;;;23.70;46.10;;;;;;6116755;28;83192;-66
2022/09/12 12:54:51;;;;;;;19.23;5.32;;;23.70;45.60;;;;;;6102308;28;83989;-61
2022/09/12 12:57:51;;;;;;;36.63;7.63;;;23.80;45.90;;;;;;6118167;28;80578;-60
2022/09/12 13:00:52;;;;;;;49.30;12.48;;;23.80;46.20;;;;;;6127808;28;80621;-62
2022/09/12 13:03:52;;;;;;;30.55;9.00;;;23.90;46.80;;;;;;6123405;28;85741;-60
2022/09/12 13:06:53;;;;;;;45.05;8.27;;;23.90;46.60;;;;;;6129977;28;84468;-60
2022/09/12 13:09:54;;;;;;;15.90;4.65;;;23.80;45.70;;;;;;6115047;28;82257;-62
2022/09/12 13:12:55;;;;;;;5.97;2.92;;;23.80;44.30;;;;;;6122093;28;83624;-61
2022/09/12 13:15:56;;;;;;;4.72;2.10;;;23.70;43.20;;;;;;6100610;28;82553;-62
2022/09/12 13:18:56;;;;;;;6.13;1.58;;;23.60;42.60;;;;;;6103407;28;80909;-62
2022/09/12 13:21:57;;;;;;;3.65;1.70;;;23.60;42.70;;;;;;6100331;28;80342;-62
2022/09/12 13:24:58;;;;;;;3.85;2.03;;;23.50;42.70;;;;;;6100548;28;81515;-60
2022/09/12 13:27:58;;;;;;;2.58;1.80;;;23.50;42.90;;;;;;6098764;28;80283;-60
2022/09/12 13:30:59;;;;;;;12.40;1.65;;;23.50;43.10;;;;;;6101309;28;81178;-61
2022/09/12 13:34:00;;;;;;;4.25;1.75;;;23.40;43.30;;;;;;6102746;28;80606;-62
2022/09/12 13:37:00;;;;;;;5.07;1.55;;;23.40;43.20;;;;;;6109021;28;80882;-61
2022/09/12 13:40:01;;;;;;;2.60;1.65;;;23.40;43.60;;;;;;6103158;28;80417;-61
2022/09/12 13:43:02;;;;;;;3.38;1.55;;;23.50;43.60;;;;;;6117754;28;81611;-61
2022/09/12 13:46:02;;;;;;;1.55;1.40;;;23.40;42.90;;;;;;6103127;28;80526;-60
2022/09/12 13:49:03;;;;;;;4.32;1.65;;;23.40;42.10;;;;;;6103853;28;80909;-68
2022/09/12 13:52:03;;;;;;;5.10;1.90;;;23.30;42.10;;;;;;6104729;28;80353;-68
2022/09/12 13:55:04;;;;;;;1.52;1.40;;;23.20;41.90;;;;;;6109018;28;82937;-67
2022/09/12 13:58:04;;;;;;;2.65;1.30;;;23.20;42.20;;;;;;6098682;28;80503;-67
2022/09/12 14:01:05;;;;;;;1.63;1.38;;;23.20;42.80;;;;;;6111460;28;80449;-69
2022/09/12 14:07:25;;;;;;;5.05;1.52;;;23.20;42.80;;;;;;6097249;28;81795;-70
2022/09/12 14:10:25;;;;;;;8.38;1.60;;;23.20;43.20;;;;;;6104024;28;81415;-67
2022/09/12 14:13:26;;;;;;;1.48;1.38;;;23.20;42.70;;;;;;6102742;28;83522;-67
2022/09/12 14:16:27;;;;;;;1.67;1.40;;;23.20;42.80;;;;;;6113193;28;80385;-66
2022/09/12 14:19:28;;;;;;;17.35;7.82;;;23.20;42.90;;;;;;6132070;28;81567;-67
2022/09/12 14:22:29;;;;;;;13.05;5.05;;;23.20;42.70;;;;;;6115676;28;82819;-65
2022/09/12 14:25:30;;;;;;;36.63;16.30;;;23.20;42.80;;;;;;6127744;28;82607;-67
2022/09/12 14:28:31;;;;;;;35.65;13.75;;;23.20;43.50;;;;;;6119793;28;89224;-70
2022/09/12 14:31:31;;;;;;;28.58;11.90;;;23.30;43.50;;;;;;6117660;28;85683;-61
2022/09/12 14:34:32;;;;;;;11.70;4.90;;;23.30;44.00;;;;;;6119721;28;83130;-63
2022/09/12 14:37:32;;;;;;;15.63;6.88;;;23.40;43.70;;;;;;6124899;28;83572;-67
2022/09/12 14:40:33;;;;;;;15.88;7.97;;;23.30;43.40;;;;;;6123541;28;82930;-67
2022/09/12 14:43:33;;;;;;;38.42;16.45;;;23.30;43.80;;;;;;6127040;28;81705;-69
2022/09/12 14:46:34;;;;;;;39.38;13.20;;;23.40;44.20;;;;;;6123972;28;84932;-67
2022/09/12 14:49:34;;;;;;;18.73;8.65;;;23.40;44.00;;;;;;6121200;28;83058;-68
2022/09/12 14:52:35;;;;;;;25.90;8.85;;;23.40;44.20;;;;;;6114474;28;86200;-69
2022/09/12 14:55:36;;;;;;;13.30;5.32;;;23.40;44.60;;;;;;6105989;28;80863;-67
2022/09/12 14:58:36;;;;;;;8.05;4.68;;;23.40;44.50;;;;;;6103758;28;83414;-63
2022/09/12 15:01:37;;;;;;;8.13;3.92;;;23.40;44.50;;;;;;6099229;28;80248;-64
2022/09/12 15:04:38;;;;;;;8.15;2.40;;;23.40;44.00;;;;;;6109351;28;80795;-59
2022/09/12 15:07:38;;;;;;;2.13;1.80;;;23.30;43.60;;;;;;6102695;28;80446;-64
2022/09/12 15:10:39;;;;;;;4.10;2.20;;;23.20;43.90;;;;;;6114353;28;79961;-66
2022/09/12 15:13:39;;;;;;;2.60;1.52;;;23.30;43.90;;;;;;6121741;28;80268;-62
2022/09/12 15:16:40;;;;;;;2.97;1.95;;;23.30;44.00;;;;;;6128638;28;84286;-67
2022/09/12 15:19:40;;;;;;;6.28;1.67;;;23.30;44.20;;;;;;6128994;28;81595;-67
2022/09/12 15:22:41;;;;;;;3.75;1.83;;;23.30;44.40;;;;;;6128699;28;83349;-63
2022/09/12 15:25:41;;;;;;;2.90;1.90;;;23.30;44.00;;;;;;6127119;28;80349;-59
2022/09/12 15:28:42;;;;;;;2.70;2.00;;;23.20;43.90;;;;;;6122606;28;83163;-63
2022/09/12 15:31:42;;;;;;;3.05;1.65;;;23.20;43.50;;;;;;6102097;28;80867;-63
2022/09/12 15:34:43;;;;;;;2.38;1.98;;;23.10;43.60;;;;;;6110216;28;80599;-64
2022/09/12 15:37:43;;;;;;;2.75;1.85;;;23.10;44.10;;;;;;6129055;28;87074;-64